sensor_id;sensor_type;location;lat;lon;timestamp;P1;durP1;ratioP1;P2;durP2;ratioP2
18170;SDS011;9210;48.358;10.902;2023-02-28T00:01:26;7.10;;;4.00;;
18170;SDS011;9210;48.358;10.902;2023-02-28T00:03:56;6.00;;;3.57;;
18170;SDS011;9210;48.358;10.902;2023-02-28T00:06:25;7.20;;;3.93;;
18170;SDS011;9210;48.358;10.902;2023-02-28T00:08:54;5.93;;;3.57;;
18170;SDS011;9210;48.358;10.902;2023-02-28T00:11:23;6.60;;;3.77;;
18170;SDS011;9210;48.358;10.902;2023-02-28T00:13:51;7.53;;;3.97;;
18170;SDS011;9210;48.358;10.902;2023-02-28T00:16:21;7.43;;;4.00;;
18170;SDS011;9210;48.358;10.902;2023-02-28T00:18:49;7.67;;;4.10;;
18170;SDS011;9210;48.358;10.902;2023-02-28T00:21:19;9.30;;;4.50;;
18170;SDS011;9210;48.358;10.902;2023-02-28T00:23:48;8.00;;;4.10;;
18170;SDS011;9210;48.358;10.902;2023-02-28T00:26:16;7.43;;;3.93;;
18170;SDS011;9210;48.358;10.902;2023-02-28T00:28:48;6.50;;;3.70;;
18170;SDS011;9210;48.358;10.902;2023-02-28T00:31:19;7.97;;;4.27;;
18170;SDS011;9210;48.358;10.902;2023-02-28T00:33:47;6.43;;;3.70;;
18170;SDS011;9210;48.358;10.902;2023-02-28T00:36:17;7.87;;;3.63;;
18170;SDS011;9210;48.358;10.902;2023-02-28T00:38:47;6.43;;;3.27;;
18170;SDS011;9210;48.358;10.902;2023-02-28T00:41:15;8.37;;;4.53;;
18170;SDS011;9210;48.358;10.902;2023-02-28T00:43:43;6.50;;;4.10;;
18170;SDS011;9210;48.358;10.902;2023-02-28T00:46:12;6.37;;;3.83;;
18170;SDS011;9210;48.358;10.902;2023-02-28T00:48:40;8.80;;;3.80;;
18170;SDS011;9210;48.358;10.902;2023-02-28T00:51:09;7.13;;;3.90;;
18170;SDS011;9210;48.358;10.902;2023-02-28T00:53:38;7.53;;;4.33;;
18170;SDS011;9210;48.358;10.902;2023-02-28T00:56:08;7.07;;;3.93;;
18170;SDS011;9210;48.358;10.902;2023-02-28T00:58:36;7.37;;;4.30;;
18170;SDS011;9210;48.358;10.902;2023-02-28T01:01:05;7.67;;;3.93;;
18170;SDS011;9210;48.358;10.902;2023-02-28T01:03:36;6.87;;;4.13;;
18170;SDS011;9210;48.358;10.902;2023-02-28T01:06:05;7.20;;;3.70;;
18170;SDS011;9210;48.358;10.902;2023-02-28T01:08:33;7.67;;;4.27;;
18170;SDS011;9210;48.358;10.902;2023-02-28T01:11:08;9.53;;;4.50;;
18170;SDS011;9210;48.358;10.902;2023-02-28T01:13:39;9.90;;;4.40;;
18170;SDS011;9210;48.358;10.902;2023-02-28T01:16:07;10.60;;;4.50;;
18170;SDS011;9210;48.358;10.902;2023-02-28T01:18:36;8.30;;;4.13;;
18170;SDS011;9210;48.358;10.902;2023-02-28T01:21:05;6.47;;;4.13;;
18170;SDS011;9210;48.358;10.902;2023-02-28T01:23:33;7.17;;;3.97;;
18170;SDS011;9210;48.358;10.902;2023-02-28T01:26:03;8.23;;;4.00;;
18170;SDS011;9210;48.358;10.902;2023-02-28T01:28:34;6.77;;;3.90;;
18170;SDS011;9210;48.358;10.902;2023-02-28T01:31:02;8.90;;;4.37;;
18170;SDS011;9210;48.358;10.902;2023-02-28T01:33:31;6.83;;;4.10;;
18170;SDS011;9210;48.358;10.902;2023-02-28T01:35:59;7.47;;;4.13;;
18170;SDS011;9210;48.358;10.902;2023-02-28T01:38:28;6.93;;;4.10;;
18170;SDS011;9210;48.358;10.902;2023-02-28T01:40:57;7.87;;;3.93;;
18170;SDS011;9210;48.358;10.902;2023-02-28T01:43:26;9.00;;;4.23;;
18170;SDS011;9210;48.358;10.902;2023-02-28T01:45:57;7.67;;;4.30;;
18170;SDS011;9210;48.358;10.902;2023-02-28T01:48:27;8.30;;;4.10;;
18170;SDS011;9210;48.358;10.902;2023-02-28T01:50:57;5.33;;;3.80;;
18170;SDS011;9210;48.358;10.902;2023-02-28T01:53:29;7.00;;;4.00;;
18170;SDS011;9210;48.358;10.902;2023-02-28T01:56:00;9.43;;;4.50;;
18170;SDS011;9210;48.358;10.902;2023-02-28T01:58:30;7.13;;;4.03;;
18170;SDS011;9210;48.358;10.902;2023-02-28T02:01:00;6.97;;;4.20;;
18170;SDS011;9210;48.358;10.902;2023-02-28T02:03:29;9.67;;;4.23;;
18170;SDS011;9210;48.358;10.902;2023-02-28T02:05:58;9.53;;;4.67;;
18170;SDS011;9210;48.358;10.902;2023-02-28T02:08:28;8.93;;;4.60;;
18170;SDS011;9210;48.358;10.902;2023-02-28T02:10:57;8.83;;;4.53;;
18170;SDS011;9210;48.358;10.902;2023-02-28T02:16:19;8.77;;;4.10;;
18170;SDS011;9210;48.358;10.902;2023-02-28T02:18:52;8.03;;;4.60;;
18170;SDS011;9210;48.358;10.902;2023-02-28T02:21:30;8.17;;;4.30;;
18170;SDS011;9210;48.358;10.902;2023-02-28T02:24:07;10.17;;;4.53;;
18170;SDS011;9210;48.358;10.902;2023-02-28T02:26:55;10.27;;;4.67;;
18170;SDS011;9210;48.358;10.902;2023-02-28T02:29:47;8.47;;;4.60;;
18170;SDS011;9210;48.358;10.902;2023-02-28T02:32:39;9.53;;;4.33;;
18170;SDS011;9210;48.358;10.902;2023-02-28T02:35:15;8.73;;;4.57;;
18170;SDS011;9210;48.358;10.902;2023-02-28T02:37:47;7.47;;;4.47;;
18170;SDS011;9210;48.358;10.902;2023-02-28T02:40:19;10.00;;;4.67;;
18170;SDS011;9210;48.358;10.902;2023-02-28T02:42:50;8.27;;;5.00;;
18170;SDS011;9210;48.358;10.902;2023-02-28T02:45:21;8.57;;;4.90;;
18170;SDS011;9210;48.358;10.902;2023-02-28T02:47:51;15.43;;;5.27;;
18170;SDS011;9210;48.358;10.902;2023-02-28T02:50:23;10.30;;;5.37;;
18170;SDS011;9210;48.358;10.902;2023-02-28T02:52:57;9.73;;;5.03;;
18170;SDS011;9210;48.358;10.902;2023-02-28T02:55:29;9.13;;;4.83;;
18170;SDS011;9210;48.358;10.902;2023-02-28T02:58:01;8.67;;;5.30;;
18170;SDS011;9210;48.358;10.902;2023-02-28T03:00:31;8.20;;;5.10;;
18170;SDS011;9210;48.358;10.902;2023-02-28T03:03:01;10.90;;;5.40;;
18170;SDS011;9210;48.358;10.902;2023-02-28T03:05:32;9.23;;;5.60;;
18170;SDS011;9210;48.358;10.902;2023-02-28T03:08:03;7.53;;;4.90;;
18170;SDS011;9210;48.358;10.902;2023-02-28T03:10:34;11.90;;;5.80;;
18170;SDS011;9210;48.358;10.902;2023-02-28T03:13:19;11.43;;;5.70;;
18170;SDS011;9210;48.358;10.902;2023-02-28T03:15:55;10.93;;;5.47;;
18170;SDS011;9210;48.358;10.902;2023-02-28T03:18:28;10.70;;;5.67;;
18170;SDS011;9210;48.358;10.902;2023-02-28T03:21:03;12.40;;;6.07;;
18170;SDS011;9210;48.358;10.902;2023-02-28T03:23:38;10.83;;;5.80;;
18170;SDS011;9210;48.358;10.902;2023-02-28T03:26:12;12.37;;;6.00;;
18170;SDS011;9210;48.358;10.902;2023-02-28T03:28:43;11.63;;;6.60;;
18170;SDS011;9210;48.358;10.902;2023-02-28T03:31:16;14.10;;;6.63;;
18170;SDS011;9210;48.358;10.902;2023-02-28T03:33:49;13.37;;;6.60;;
18170;SDS011;9210;48.358;10.902;2023-02-28T03:36:23;11.70;;;6.20;;
18170;SDS011;9210;48.358;10.902;2023-02-28T03:38:53;11.00;;;5.90;;
18170;SDS011;9210;48.358;10.902;2023-02-28T03:41:25;12.20;;;6.30;;
18170;SDS011;9210;48.358;10.902;2023-02-28T03:43:56;13.83;;;6.23;;
18170;SDS011;9210;48.358;10.902;2023-02-28T03:46:27;15.23;;;6.60;;
18170;SDS011;9210;48.358;10.902;2023-02-28T03:48:57;14.07;;;7.23;;
18170;SDS011;9210;48.358;10.902;2023-02-28T03:51:30;13.93;;;6.47;;
18170;SDS011;9210;48.358;10.902;2023-02-28T03:54:02;17.20;;;7.17;;
18170;SDS011;9210;48.358;10.902;2023-02-28T03:56:33;14.07;;;6.93;;
18170;SDS011;9210;48.358;10.902;2023-02-28T03:59:04;13.13;;;6.57;;
18170;SDS011;9210;48.358;10.902;2023-02-28T04:01:33;12.20;;;6.77;;
18170;SDS011;9210;48.358;10.902;2023-02-28T04:04:03;11.83;;;6.70;;
18170;SDS011;9210;48.358;10.902;2023-02-28T04:06:34;13.47;;;6.80;;
18170;SDS011;9210;48.358;10.902;2023-02-28T04:09:02;13.50;;;6.93;;
18170;SDS011;9210;48.358;10.902;2023-02-28T04:11:32;12.47;;;7.20;;
18170;SDS011;9210;48.358;10.902;2023-02-28T04:14:02;14.70;;;7.40;;
18170;SDS011;9210;48.358;10.902;2023-02-28T04:16:31;12.73;;;7.17;;
18170;SDS011;9210;48.358;10.902;2023-02-28T04:19:01;15.10;;;7.30;;
18170;SDS011;9210;48.358;10.902;2023-02-28T04:21:31;12.27;;;7.07;;
18170;SDS011;9210;48.358;10.902;2023-02-28T04:24:01;11.80;;;6.77;;
18170;SDS011;9210;48.358;10.902;2023-02-28T04:26:30;12.90;;;7.17;;
18170;SDS011;9210;48.358;10.902;2023-02-28T04:28:59;11.53;;;6.57;;
18170;SDS011;9210;48.358;10.902;2023-02-28T04:31:27;13.20;;;7.07;;
18170;SDS011;9210;48.358;10.902;2023-02-28T04:33:57;14.40;;;7.70;;
18170;SDS011;9210;48.358;10.902;2023-02-28T04:36:25;15.77;;;8.53;;
18170;SDS011;9210;48.358;10.902;2023-02-28T04:38:54;15.90;;;8.17;;
18170;SDS011;9210;48.358;10.902;2023-02-28T04:41:24;16.07;;;7.93;;
18170;SDS011;9210;48.358;10.902;2023-02-28T04:43:56;16.57;;;7.83;;
18170;SDS011;9210;48.358;10.902;2023-02-28T04:46:24;16.50;;;8.10;;
18170;SDS011;9210;48.358;10.902;2023-02-28T04:48:53;17.37;;;8.00;;
18170;SDS011;9210;48.358;10.902;2023-02-28T04:51:21;16.37;;;8.37;;
18170;SDS011;9210;48.358;10.902;2023-02-28T04:53:50;16.27;;;8.10;;
18170;SDS011;9210;48.358;10.902;2023-02-28T04:56:19;17.50;;;8.37;;
18170;SDS011;9210;48.358;10.902;2023-02-28T04:58:48;16.83;;;8.73;;
18170;SDS011;9210;48.358;10.902;2023-02-28T05:01:20;15.07;;;8.17;;
18170;SDS011;9210;48.358;10.902;2023-02-28T05:03:50;16.10;;;8.03;;
18170;SDS011;9210;48.358;10.902;2023-02-28T05:06:19;17.43;;;8.63;;
18170;SDS011;9210;48.358;10.902;2023-02-28T05:08:50;16.83;;;9.23;;
18170;SDS011;9210;48.358;10.902;2023-02-28T05:11:19;18.30;;;9.30;;
18170;SDS011;9210;48.358;10.902;2023-02-28T05:13:49;16.23;;;8.73;;
18170;SDS011;9210;48.358;10.902;2023-02-28T05:16:18;17.53;;;8.00;;
18170;SDS011;9210;48.358;10.902;2023-02-28T05:18:47;20.43;;;9.50;;
18170;SDS011;9210;48.358;10.902;2023-02-28T05:21:21;21.63;;;9.53;;
18170;SDS011;9210;48.358;10.902;2023-02-28T05:23:51;16.10;;;8.40;;
18170;SDS011;9210;48.358;10.902;2023-02-28T05:26:20;19.03;;;9.10;;
18170;SDS011;9210;48.358;10.902;2023-02-28T05:28:49;18.30;;;9.10;;
18170;SDS011;9210;48.358;10.902;2023-02-28T05:31:18;18.37;;;9.10;;
18170;SDS011;9210;48.358;10.902;2023-02-28T05:33:47;16.93;;;8.67;;
18170;SDS011;9210;48.358;10.902;2023-02-28T05:36:15;18.07;;;9.57;;
18170;SDS011;9210;48.358;10.902;2023-02-28T05:38:45;15.93;;;9.00;;
18170;SDS011;9210;48.358;10.902;2023-02-28T05:41:14;21.53;;;9.90;;
18170;SDS011;9210;48.358;10.902;2023-02-28T05:43:43;17.50;;;9.07;;
18170;SDS011;9210;48.358;10.902;2023-02-28T05:46:13;18.17;;;8.97;;
18170;SDS011;9210;48.358;10.902;2023-02-28T05:48:42;21.07;;;10.07;;
18170;SDS011;9210;48.358;10.902;2023-02-28T05:51:11;18.27;;;9.40;;
18170;SDS011;9210;48.358;10.902;2023-02-28T05:53:39;17.40;;;8.97;;
18170;SDS011;9210;48.358;10.902;2023-02-28T05:56:08;20.83;;;9.93;;
18170;SDS011;9210;48.358;10.902;2023-02-28T05:58:36;17.47;;;9.33;;
18170;SDS011;9210;48.358;10.902;2023-02-28T06:01:20;18.30;;;9.83;;
18170;SDS011;9210;48.358;10.902;2023-02-28T06:03:49;20.60;;;9.47;;
18170;SDS011;9210;48.358;10.902;2023-02-28T06:06:17;17.10;;;9.60;;
18170;SDS011;9210;48.358;10.902;2023-02-28T06:08:47;19.87;;;9.50;;
18170;SDS011;9210;48.358;10.902;2023-02-28T06:11:16;21.10;;;10.30;;
18170;SDS011;9210;48.358;10.902;2023-02-28T06:13:46;18.03;;;9.97;;
18170;SDS011;9210;48.358;10.902;2023-02-28T06:16:15;20.83;;;9.97;;
18170;SDS011;9210;48.358;10.902;2023-02-28T06:18:45;25.23;;;10.30;;
18170;SDS011;9210;48.358;10.902;2023-02-28T06:21:13;18.30;;;9.87;;
18170;SDS011;9210;48.358;10.902;2023-02-28T06:23:42;23.30;;;10.53;;
18170;SDS011;9210;48.358;10.902;2023-02-28T06:26:12;21.70;;;10.27;;
18170;SDS011;9210;48.358;10.902;2023-02-28T06:28:40;20.50;;;10.40;;
18170;SDS011;9210;48.358;10.902;2023-02-28T06:31:09;18.00;;;9.93;;
18170;SDS011;9210;48.358;10.902;2023-02-28T06:33:38;21.70;;;9.57;;
18170;SDS011;9210;48.358;10.902;2023-02-28T06:36:09;20.33;;;9.83;;
18170;SDS011;9210;48.358;10.902;2023-02-28T06:38:39;20.53;;;10.50;;
18170;SDS011;9210;48.358;10.902;2023-02-28T06:41:08;25.93;;;10.53;;
18170;SDS011;9210;48.358;10.902;2023-02-28T06:43:38;18.93;;;10.07;;
18170;SDS011;9210;48.358;10.902;2023-02-28T06:46:08;19.60;;;10.23;;
18170;SDS011;9210;48.358;10.902;2023-02-28T06:48:36;21.77;;;10.67;;
18170;SDS011;9210;48.358;10.902;2023-02-28T06:51:06;19.87;;;10.60;;
18170;SDS011;9210;48.358;10.902;2023-02-28T06:53:36;25.20;;;10.97;;
18170;SDS011;9210;48.358;10.902;2023-02-28T06:56:05;19.70;;;10.00;;
18170;SDS011;9210;48.358;10.902;2023-02-28T06:58:35;22.23;;;10.47;;
18170;SDS011;9210;48.358;10.902;2023-02-28T07:01:03;19.27;;;9.63;;
18170;SDS011;9210;48.358;10.902;2023-02-28T07:03:32;17.83;;;9.87;;
18170;SDS011;9210;48.358;10.902;2023-02-28T07:06:02;19.70;;;9.93;;
18170;SDS011;9210;48.358;10.902;2023-02-28T07:08:30;19.03;;;10.40;;
18170;SDS011;9210;48.358;10.902;2023-02-28T07:11:00;18.70;;;9.63;;
18170;SDS011;9210;48.358;10.902;2023-02-28T07:13:29;17.67;;;9.87;;
18170;SDS011;9210;48.358;10.902;2023-02-28T07:15:58;22.63;;;10.60;;
18170;SDS011;9210;48.358;10.902;2023-02-28T07:18:27;19.07;;;9.90;;
18170;SDS011;9210;48.358;10.902;2023-02-28T07:20:56;17.67;;;9.40;;
18170;SDS011;9210;48.358;10.902;2023-02-28T07:23:25;19.90;;;9.83;;
18170;SDS011;9210;48.358;10.902;2023-02-28T07:25:54;18.93;;;10.40;;
18170;SDS011;9210;48.358;10.902;2023-02-28T07:28:24;19.97;;;9.77;;
18170;SDS011;9210;48.358;10.902;2023-02-28T07:30:52;19.93;;;9.67;;
18170;SDS011;9210;48.358;10.902;2023-02-28T07:33:21;20.10;;;10.20;;
18170;SDS011;9210;48.358;10.902;2023-02-28T07:35:50;21.40;;;10.97;;
18170;SDS011;9210;48.358;10.902;2023-02-28T07:38:19;21.47;;;9.87;;
18170;SDS011;9210;48.358;10.902;2023-02-28T07:40:47;20.40;;;10.13;;
18170;SDS011;9210;48.358;10.902;2023-02-28T07:43:16;19.27;;;9.67;;
18170;SDS011;9210;48.358;10.902;2023-02-28T07:45:46;18.30;;;9.57;;
18170;SDS011;9210;48.358;10.902;2023-02-28T07:48:14;20.13;;;9.67;;
18170;SDS011;9210;48.358;10.902;2023-02-28T07:50:43;21.53;;;10.70;;
18170;SDS011;9210;48.358;10.902;2023-02-28T07:53:14;20.37;;;10.43;;
18170;SDS011;9210;48.358;10.902;2023-02-28T07:55:42;19.23;;;10.60;;
18170;SDS011;9210;48.358;10.902;2023-02-28T07:58:11;26.83;;;10.73;;
18170;SDS011;9210;48.358;10.902;2023-02-28T08:00:39;20.73;;;10.47;;
18170;SDS011;9210;48.358;10.902;2023-02-28T08:03:09;19.80;;;9.90;;
18170;SDS011;9210;48.358;10.902;2023-02-28T08:05:39;19.43;;;10.33;;
18170;SDS011;9210;48.358;10.902;2023-02-28T08:08:07;19.43;;;10.20;;
18170;SDS011;9210;48.358;10.902;2023-02-28T08:10:36;21.57;;;11.07;;
18170;SDS011;9210;48.358;10.902;2023-02-28T08:13:04;20.57;;;10.17;;
18170;SDS011;9210;48.358;10.902;2023-02-28T08:15:33;20.70;;;10.33;;
18170;SDS011;9210;48.358;10.902;2023-02-28T08:18:02;23.63;;;10.63;;
18170;SDS011;9210;48.358;10.902;2023-02-28T08:20:32;20.37;;;11.03;;
18170;SDS011;9210;48.358;10.902;2023-02-28T08:23:01;21.17;;;10.67;;
18170;SDS011;9210;48.358;10.902;2023-02-28T08:25:29;22.87;;;11.17;;
18170;SDS011;9210;48.358;10.902;2023-02-28T08:27:57;24.63;;;10.87;;
18170;SDS011;9210;48.358;10.902;2023-02-28T08:30:26;21.50;;;10.03;;
18170;SDS011;9210;48.358;10.902;2023-02-28T08:32:55;23.33;;;11.03;;
18170;SDS011;9210;48.358;10.902;2023-02-28T08:35:23;24.40;;;10.80;;
18170;SDS011;9210;48.358;10.902;2023-02-28T08:37:53;20.47;;;10.70;;
18170;SDS011;9210;48.358;10.902;2023-02-28T08:40:22;25.63;;;12.03;;
18170;SDS011;9210;48.358;10.902;2023-02-28T08:42:51;26.33;;;11.57;;
18170;SDS011;9210;48.358;10.902;2023-02-28T08:45:19;20.97;;;10.53;;
18170;SDS011;9210;48.358;10.902;2023-02-28T08:47:48;18.87;;;10.10;;
18170;SDS011;9210;48.358;10.902;2023-02-28T08:50:18;20.70;;;10.30;;
18170;SDS011;9210;48.358;10.902;2023-02-28T08:52:47;19.83;;;10.60;;
18170;SDS011;9210;48.358;10.902;2023-02-28T08:55:17;24.77;;;11.80;;
18170;SDS011;9210;48.358;10.902;2023-02-28T08:57:45;24.97;;;11.73;;
18170;SDS011;9210;48.358;10.902;2023-02-28T09:00:14;20.97;;;11.50;;
18170;SDS011;9210;48.358;10.902;2023-02-28T09:02:42;20.10;;;11.10;;
18170;SDS011;9210;48.358;10.902;2023-02-28T09:05:11;23.37;;;11.43;;
18170;SDS011;9210;48.358;10.902;2023-02-28T09:07:39;26.27;;;12.10;;
18170;SDS011;9210;48.358;10.902;2023-02-28T09:10:08;25.73;;;11.73;;
18170;SDS011;9210;48.358;10.902;2023-02-28T09:12:38;20.30;;;10.77;;
18170;SDS011;9210;48.358;10.902;2023-02-28T09:15:07;20.30;;;10.40;;
18170;SDS011;9210;48.358;10.902;2023-02-28T09:17:36;24.90;;;11.50;;
18170;SDS011;9210;48.358;10.902;2023-02-28T09:20:04;23.83;;;11.67;;
18170;SDS011;9210;48.358;10.902;2023-02-28T09:22:33;22.00;;;11.50;;
18170;SDS011;9210;48.358;10.902;2023-02-28T09:25:01;22.23;;;10.90;;
18170;SDS011;9210;48.358;10.902;2023-02-28T09:27:30;21.97;;;10.40;;
18170;SDS011;9210;48.358;10.902;2023-02-28T09:29:59;18.30;;;11.00;;
18170;SDS011;9210;48.358;10.902;2023-02-28T09:32:28;20.13;;;10.53;;
18170;SDS011;9210;48.358;10.902;2023-02-28T09:34:56;20.77;;;10.90;;
18170;SDS011;9210;48.358;10.902;2023-02-28T09:37:25;20.13;;;11.40;;
18170;SDS011;9210;48.358;10.902;2023-02-28T09:39:55;19.83;;;10.80;;
18170;SDS011;9210;48.358;10.902;2023-02-28T09:42:25;22.10;;;11.07;;
18170;SDS011;9210;48.358;10.902;2023-02-28T09:44:55;21.30;;;10.33;;
18170;SDS011;9210;48.358;10.902;2023-02-28T09:47:27;20.47;;;10.10;;
18170;SDS011;9210;48.358;10.902;2023-02-28T09:50:15;21.03;;;11.53;;
18170;SDS011;9210;48.358;10.902;2023-02-28T09:52:45;21.83;;;10.60;;
18170;SDS011;9210;48.358;10.902;2023-02-28T09:55:18;22.23;;;11.10;;
18170;SDS011;9210;48.358;10.902;2023-02-28T09:57:48;23.70;;;11.33;;
18170;SDS011;9210;48.358;10.902;2023-02-28T10:00:18;21.53;;;10.97;;
18170;SDS011;9210;48.358;10.902;2023-02-28T10:02:53;22.23;;;11.03;;
18170;SDS011;9210;48.358;10.902;2023-02-28T10:05:25;25.80;;;11.47;;
18170;SDS011;9210;48.358;10.902;2023-02-28T10:08:02;20.20;;;10.17;;
18170;SDS011;9210;48.358;10.902;2023-02-28T10:10:33;21.33;;;10.53;;
18170;SDS011;9210;48.358;10.902;2023-02-28T10:13:05;23.57;;;11.50;;
18170;SDS011;9210;48.358;10.902;2023-02-28T10:15:34;21.13;;;10.77;;
18170;SDS011;9210;48.358;10.902;2023-02-28T10:18:05;21.20;;;11.33;;
18170;SDS011;9210;48.358;10.902;2023-02-28T10:20:39;21.03;;;10.67;;
18170;SDS011;9210;48.358;10.902;2023-02-28T10:23:12;21.60;;;11.73;;
18170;SDS011;9210;48.358;10.902;2023-02-28T10:25:42;22.83;;;10.97;;
18170;SDS011;9210;48.358;10.902;2023-02-28T10:28:20;22.97;;;10.27;;
18170;SDS011;9210;48.358;10.902;2023-02-28T10:30:49;24.20;;;10.70;;
18170;SDS011;9210;48.358;10.902;2023-02-28T10:33:21;21.97;;;10.67;;
18170;SDS011;9210;48.358;10.902;2023-02-28T10:35:50;22.03;;;11.27;;
18170;SDS011;9210;48.358;10.902;2023-02-28T10:38:20;20.40;;;10.57;;
18170;SDS011;9210;48.358;10.902;2023-02-28T10:40:49;21.00;;;10.33;;
18170;SDS011;9210;48.358;10.902;2023-02-28T10:43:19;21.83;;;10.83;;
18170;SDS011;9210;48.358;10.902;2023-02-28T10:45:58;19.07;;;11.07;;
18170;SDS011;9210;48.358;10.902;2023-02-28T10:48:44;17.70;;;10.37;;
18170;SDS011;9210;48.358;10.902;2023-02-28T10:51:14;21.60;;;11.40;;
18170;SDS011;9210;48.358;10.902;2023-02-28T10:53:47;18.50;;;10.33;;
18170;SDS011;9210;48.358;10.902;2023-02-28T10:56:27;21.23;;;10.80;;
18170;SDS011;9210;48.358;10.902;2023-02-28T10:58:57;18.43;;;10.63;;
18170;SDS011;9210;48.358;10.902;2023-02-28T11:01:34;21.17;;;11.00;;
18170;SDS011;9210;48.358;10.902;2023-02-28T11:04:04;20.20;;;10.87;;
18170;SDS011;9210;48.358;10.902;2023-02-28T11:06:44;20.97;;;11.13;;
18170;SDS011;9210;48.358;10.902;2023-02-28T11:09:18;21.27;;;11.20;;
18170;SDS011;9210;48.358;10.902;2023-02-28T11:11:48;19.97;;;10.87;;
18170;SDS011;9210;48.358;10.902;2023-02-28T11:14:18;20.97;;;10.97;;
18170;SDS011;9210;48.358;10.902;2023-02-28T11:16:48;18.50;;;10.40;;
18170;SDS011;9210;48.358;10.902;2023-02-28T11:19:20;22.57;;;11.47;;
18170;SDS011;9210;48.358;10.902;2023-02-28T11:21:52;21.20;;;11.60;;
18170;SDS011;9210;48.358;10.902;2023-02-28T11:24:22;18.97;;;10.10;;
18170;SDS011;9210;48.358;10.902;2023-02-28T11:26:52;20.90;;;10.93;;
18170;SDS011;9210;48.358;10.902;2023-02-28T11:29:22;20.20;;;10.47;;
18170;SDS011;9210;48.358;10.902;2023-02-28T11:32:01;18.60;;;10.63;;
18170;SDS011;9210;48.358;10.902;2023-02-28T11:34:31;15.63;;;9.67;;
18170;SDS011;9210;48.358;10.902;2023-02-28T11:37:00;21.33;;;10.50;;
18170;SDS011;9210;48.358;10.902;2023-02-28T11:39:31;21.20;;;11.30;;
18170;SDS011;9210;48.358;10.902;2023-02-28T11:42:10;21.80;;;10.90;;
18170;SDS011;9210;48.358;10.902;2023-02-28T11:44:43;20.63;;;11.23;;
18170;SDS011;9210;48.358;10.902;2023-02-28T11:47:19;22.70;;;11.07;;
18170;SDS011;9210;48.358;10.902;2023-02-28T11:49:57;21.27;;;11.00;;
18170;SDS011;9210;48.358;10.902;2023-02-28T11:52:29;19.13;;;10.90;;
18170;SDS011;9210;48.358;10.902;2023-02-28T11:55:05;21.57;;;11.07;;
18170;SDS011;9210;48.358;10.902;2023-02-28T11:57:39;21.70;;;10.10;;
18170;SDS011;9210;48.358;10.902;2023-02-28T12:00:15;17.63;;;10.43;;
18170;SDS011;9210;48.358;10.902;2023-02-28T12:02:51;21.03;;;10.43;;
18170;SDS011;9210;48.358;10.902;2023-02-28T12:05:26;20.73;;;10.87;;
18170;SDS011;9210;48.358;10.902;2023-02-28T12:08:00;20.83;;;10.70;;
18170;SDS011;9210;48.358;10.902;2023-02-28T12:10:32;18.43;;;11.10;;
18170;SDS011;9210;48.358;10.902;2023-02-28T12:13:07;18.80;;;10.70;;
18170;SDS011;9210;48.358;10.902;2023-02-28T12:15:49;20.30;;;10.70;;
18170;SDS011;9210;48.358;10.902;2023-02-28T12:18:26;18.70;;;10.77;;
18170;SDS011;9210;48.358;10.902;2023-02-28T12:21:01;19.93;;;10.57;;
18170;SDS011;9210;48.358;10.902;2023-02-28T12:23:38;21.77;;;9.80;;
18170;SDS011;9210;48.358;10.902;2023-02-28T12:26:12;19.37;;;11.00;;
18170;SDS011;9210;48.358;10.902;2023-02-28T12:28:46;24.87;;;10.70;;
18170;SDS011;9210;48.358;10.902;2023-02-28T12:31:17;22.80;;;10.67;;
18170;SDS011;9210;48.358;10.902;2023-02-28T12:33:48;22.10;;;10.90;;
18170;SDS011;9210;48.358;10.902;2023-02-28T12:36:20;23.03;;;11.17;;
18170;SDS011;9210;48.358;10.902;2023-02-28T12:38:52;25.53;;;11.17;;
18170;SDS011;9210;48.358;10.902;2023-02-28T12:41:24;17.27;;;9.90;;
18170;SDS011;9210;48.358;10.902;2023-02-28T12:43:57;23.80;;;11.17;;
18170;SDS011;9210;48.358;10.902;2023-02-28T12:46:28;18.93;;;10.37;;
18170;SDS011;9210;48.358;10.902;2023-02-28T12:48:57;21.97;;;10.67;;
18170;SDS011;9210;48.358;10.902;2023-02-28T12:51:28;21.67;;;10.43;;
18170;SDS011;9210;48.358;10.902;2023-02-28T12:53:59;19.47;;;10.93;;
18170;SDS011;9210;48.358;10.902;2023-02-28T12:56:33;21.93;;;10.50;;
18170;SDS011;9210;48.358;10.902;2023-02-28T12:59:06;17.87;;;10.33;;
18170;SDS011;9210;48.358;10.902;2023-02-28T13:01:42;21.03;;;10.30;;
18170;SDS011;9210;48.358;10.902;2023-02-28T13:07:12;17.70;;;10.07;;
18170;SDS011;9210;48.358;10.902;2023-02-28T13:09:51;21.83;;;11.00;;
18170;SDS011;9210;48.358;10.902;2023-02-28T13:12:20;18.07;;;9.97;;
18170;SDS011;9210;48.358;10.902;2023-02-28T13:14:49;19.67;;;10.00;;
18170;SDS011;9210;48.358;10.902;2023-02-28T13:17:18;20.80;;;9.93;;
18170;SDS011;9210;48.358;10.902;2023-02-28T13:19:56;18.03;;;10.40;;
18170;SDS011;9210;48.358;10.902;2023-02-28T13:22:39;19.80;;;10.40;;
18170;SDS011;9210;48.358;10.902;2023-02-28T13:27:55;18.30;;;10.23;;
18170;SDS011;9210;48.358;10.902;2023-02-28T13:33:17;20.20;;;10.00;;
18170;SDS011;9210;48.358;10.902;2023-02-28T13:35:50;19.30;;;10.50;;
18170;SDS011;9210;48.358;10.902;2023-02-28T13:38:34;19.30;;;10.07;;
18170;SDS011;9210;48.358;10.902;2023-02-28T13:44:05;22.47;;;10.60;;
18170;SDS011;9210;48.358;10.902;2023-02-28T13:46:35;23.10;;;10.43;;
18170;SDS011;9210;48.358;10.902;2023-02-28T13:49:19;22.63;;;11.10;;
18170;SDS011;9210;48.358;10.902;2023-02-28T13:51:48;19.17;;;10.20;;
18170;SDS011;9210;48.358;10.902;2023-02-28T13:54:30;17.33;;;10.90;;
18170;SDS011;9210;48.358;10.902;2023-02-28T13:57:05;21.47;;;11.10;;
18170;SDS011;9210;48.358;10.902;2023-02-28T13:59:38;20.47;;;10.53;;
18170;SDS011;9210;48.358;10.902;2023-02-28T14:02:20;21.67;;;11.53;;
18170;SDS011;9210;48.358;10.902;2023-02-28T14:04:56;18.83;;;10.13;;
18170;SDS011;9210;48.358;10.902;2023-02-28T14:07:28;18.63;;;10.03;;
18170;SDS011;9210;48.358;10.902;2023-02-28T14:10:03;20.30;;;10.53;;
18170;SDS011;9210;48.358;10.902;2023-02-28T14:15:41;19.37;;;10.30;;
18170;SDS011;9210;48.358;10.902;2023-02-28T14:18:22;21.03;;;10.27;;
18170;SDS011;9210;48.358;10.902;2023-02-28T14:20:54;21.10;;;11.40;;
18170;SDS011;9210;48.358;10.902;2023-02-28T14:23:34;19.50;;;10.77;;
18170;SDS011;9210;48.358;10.902;2023-02-28T14:26:07;18.07;;;10.17;;
18170;SDS011;9210;48.358;10.902;2023-02-28T14:28:43;18.77;;;9.53;;
18170;SDS011;9210;48.358;10.902;2023-02-28T14:31:13;18.83;;;10.23;;
18170;SDS011;9210;48.358;10.902;2023-02-28T14:33:50;18.03;;;10.07;;
18170;SDS011;9210;48.358;10.902;2023-02-28T14:36:26;17.23;;;10.20;;
18170;SDS011;9210;48.358;10.902;2023-02-28T14:38:56;16.77;;;9.63;;
18170;SDS011;9210;48.358;10.902;2023-02-28T14:41:30;19.43;;;10.13;;
18170;SDS011;9210;48.358;10.902;2023-02-28T14:44:02;19.10;;;10.10;;
18170;SDS011;9210;48.358;10.902;2023-02-28T14:46:34;17.30;;;10.17;;
18170;SDS011;9210;48.358;10.902;2023-02-28T14:49:03;21.53;;;10.83;;
18170;SDS011;9210;48.358;10.902;2023-02-28T14:51:32;19.60;;;10.50;;
18170;SDS011;9210;48.358;10.902;2023-02-28T14:54:01;19.10;;;10.80;;
18170;SDS011;9210;48.358;10.902;2023-02-28T14:56:34;23.97;;;9.87;;
18170;SDS011;9210;48.358;10.902;2023-02-28T14:59:05;20.43;;;9.97;;
18170;SDS011;9210;48.358;10.902;2023-02-28T15:01:33;18.00;;;9.20;;
18170;SDS011;9210;48.358;10.902;2023-02-28T15:04:03;16.43;;;9.37;;
18170;SDS011;9210;48.358;10.902;2023-02-28T15:06:32;21.03;;;10.63;;
18170;SDS011;9210;48.358;10.902;2023-02-28T15:09:07;19.60;;;10.47;;
18170;SDS011;9210;48.358;10.902;2023-02-28T15:11:38;22.20;;;9.80;;